Time;durP1;ratioP1;P1;durP2;ratioP2;P2;SDS_P1;SDS_P2;PMS_P1;PMS_P2;Temp;Humidity;BMP_temperature;BMP_pressure;BME280_temperature;BME280_humidity;BME280_pressure;Samples;Min_cycle;Max_cycle;Signal;HPM_P1;HPM_P2
2022/11/13 00:00:22;;;;;;;18.30;7.50;;;;;;;19.44;61.15;101372.00;5092837;28;20540;-63
2022/11/13 00:02:48;;;;;;;14.20;7.20;;;;;;;19.46;61.41;101374.50;5075431;28;20606;-63
2022/11/13 00:05:13;;;;;;;14.33;7.07;;;;;;;19.43;61.40;101367.47;5093388;28;20206;-63
2022/11/13 00:07:39;;;;;;;13.53;7.40;;;;;;;19.43;61.36;101370.31;5093624;28;20171;-63
2022/11/13 00:10:05;;;;;;;18.23;7.97;;;;;;;19.44;61.40;101371.16;5093260;28;20193;-64
2022/11/13 00:12:30;;;;;;;23.23;7.50;;;;;;;19.44;61.33;101368.28;5093496;28;20182;-64
2022/11/13 00:14:55;;;;;;;20.67;6.97;;;;;;;19.46;61.32;101372.44;5092420;28;20420;-63
2022/11/13 00:17:21;;;;;;;14.87;7.30;;;;;;;19.44;61.43;101360.53;5058580;28;20170;-63
2022/11/13 00:19:46;;;;;;;11.60;7.07;;;;;;;19.40;61.52;101359.59;5093067;28;20155;-63
2022/11/13 00:22:12;;;;;;;13.53;7.23;;;;;;;19.39;61.56;101355.06;5093159;28;20181;-63
2022/11/13 00:24:37;;;;;;;15.13;7.23;;;;;;;19.39;61.54;101359.94;5075059;28;20159;-63
2022/11/13 00:27:03;;;;;;;12.60;7.20;;;;;;;19.45;61.38;101362.19;5093345;28;20159;-63
2022/11/13 00:29:28;;;;;;;12.20;6.40;;;;;;;19.46;61.34;101363.84;5092741;28;20549;-64
2022/11/13 00:31:53;;;;;;;14.23;7.23;;;;;;;19.41;61.59;101357.56;5092928;28;20907;-63
2022/11/13 00:34:19;;;;;;;11.53;6.70;;;;;;;19.39;61.61;101349.34;5074770;28;20182;-64
2022/11/13 00:36:44;;;;;;;13.20;6.77;;;;;;;19.45;61.42;101355.63;5093125;28;20241;-63
2022/11/13 00:39:10;;;;;;;10.20;6.03;;;;;;;19.42;61.50;101357.19;5092545;28;20179;-63
2022/11/13 00:41:35;;;;;;;13.77;6.60;;;;;;;19.38;61.69;101350.53;5092259;28;20174;-63
2022/11/13 00:44:02;;;;;;;16.87;6.67;;;;;;;19.39;61.58;101342.75;5092695;28;20178;-63
2022/11/13 00:46:28;;;;;;;12.97;6.90;;;;;;;19.47;61.23;101348.34;5074931;28;20163;-63
2022/11/13 00:48:53;;;;;;;12.47;6.63;;;;;;;19.38;61.67;101341.09;5092445;28;20407;-63
2022/11/13 00:51:19;;;;;;;13.43;6.70;;;;;;;19.41;61.44;101338.34;5092474;28;20174;-63
2022/11/13 00:53:44;;;;;;;12.13;6.20;;;;;;;19.38;61.61;101335.38;5074421;28;20221;-63
2022/11/13 00:56:10;;;;;;;14.30;7.00;;;;;;;19.39;61.53;101334.16;5091235;28;20220;-63
2022/11/13 00:58:35;;;;;;;14.77;6.97;;;;;;;19.39;61.81;101332.16;5081454;28;20178;-64
2022/11/13 01:01:09;;;;;;;14.43;7.17;;;;;;;19.36;61.79;101321.41;5092217;28;20177;-64
2022/11/13 01:03:34;;;;;;;12.40;6.70;;;;;;;19.38;61.69;101316.16;5092372;28;20660;-63
2022/11/13 01:06:00;;;;;;;12.70;6.73;;;;;;;19.37;61.75;101308.75;5074303;28;20420;-63
2022/11/13 01:08:25;;;;;;;11.00;6.50;;;;;;;19.39;61.64;101309.25;5092255;28;20165;-63
2022/11/13 01:10:50;;;;;;;11.33;6.00;;;;;;;19.40;61.60;101310.06;5092414;28;20197;-63
2022/11/13 01:13:16;;;;;;;13.50;6.70;;;;;;;19.40;61.64;101312.91;5091473;28;20163;-63
2022/11/13 01:15:42;;;;;;;12.73;6.40;;;;;;;19.41;61.57;101321.16;5091236;28;20170;-63
2022/11/13 01:18:08;;;;;;;9.23;5.80;;;;;;;19.44;61.50;101317.56;5072847;28;20221;-63
2022/11/13 01:20:33;;;;;;;13.30;6.47;;;;;;;19.41;61.59;101308.88;5090908;28;21096;-63
2022/11/13 01:22:59;;;;;;;10.63;5.93;;;;;;;19.38;61.70;101310.44;5072854;28;20166;-63
2022/11/13 01:25:24;;;;;;;8.70;5.90;;;;;;;19.40;61.62;101313.75;5090510;28;20197;-63
2022/11/13 01:27:50;;;;;;;12.10;6.37;;;;;;;19.43;61.48;101312.22;5073229;28;20173;-63
2022/11/13 01:30:15;;;;;;;9.43;5.90;;;;;;;19.38;61.51;101307.56;5056914;28;20828;-63
2022/11/13 01:32:41;;;;;;;11.57;6.10;;;;;;;19.40;61.50;101308.03;5092348;28;20224;-64
2022/11/13 01:35:06;;;;;;;8.93;6.33;;;;;;;19.37;61.85;101308.75;5091713;28;20178;-64
2022/11/13 01:37:32;;;;;;;10.27;6.10;;;;;;;19.38;61.61;101307.56;5091437;28;20658;-63
2022/11/13 01:39:57;;;;;;;13.30;6.10;;;;;;;19.39;61.56;101309.25;5073398;28;20159;-63
2022/11/13 01:42:23;;;;;;;13.20;5.93;;;;;;;19.40;61.53;101308.03;5090421;28;20189;-63
2022/11/13 01:44:53;;;;;;;9.23;5.60;;;;;;;19.38;61.67;101301.84;5073479;28;20850;-63
2022/11/13 01:47:18;;;;;;;14.77;5.80;;;;;;;19.36;61.72;101312.81;5091628;28;20159;-63
2022/11/13 01:49:44;;;;;;;8.23;5.23;;;;;;;19.36;61.63;101304.22;5073266;28;20440;-63
2022/11/13 01:52:23;;;;;;;10.80;5.77;;;;;;;19.36;61.69;101298.50;5072249;28;21004;-63
2022/11/13 01:54:53;;;;;;;16.80;6.10;;;;;;;19.39;61.60;101297.78;5069504;28;20171;-63
2022/11/13 01:57:18;;;;;;;11.47;5.20;;;;;;;19.35;61.72;101293.97;5069775;28;20409;-63
2022/11/13 01:59:49;;;;;;;9.30;5.93;;;;;;;19.35;61.54;101287.41;5073332;28;20467;-63
2022/11/13 02:02:15;;;;;;;10.30;5.27;;;;;;;19.33;61.72;101282.06;5073697;28;20166;-63
2022/11/13 02:04:40;;;;;;;8.40;5.10;;;;;;;19.34;62.07;101280.00;5091093;28;20456;-63
2022/11/13 02:07:07;;;;;;;7.97;5.23;;;;;;;19.36;61.61;101284.19;5091370;28;20540;-63
2022/11/13 02:09:43;;;;;;;10.17;5.50;;;;;;;19.32;61.82;101271.78;5089581;28;20285;-63
2022/11/13 02:12:13;;;;;;;10.83;6.20;;;;;;;19.30;61.84;101271.31;5073199;28;20400;-63
2022/11/13 02:14:40;;;;;;;8.90;5.70;;;;;;;19.36;61.81;101266.19;5091228;28;20918;-63
2022/11/13 02:17:07;;;;;;;9.77;5.67;;;;;;;19.37;61.66;101268.66;5072974;28;20499;-63
2022/11/13 02:19:38;;;;;;;8.70;5.13;;;;;;;19.36;61.58;101266.19;5089303;28;20789;-63
2022/11/13 02:22:19;;;;;;;11.13;5.70;;;;;;;19.38;61.54;101263.78;5090203;28;20408;-63
2022/11/13 02:24:44;;;;;;;11.87;5.00;;;;;;;19.34;61.80;101255.09;5052180;28;20428;-64
2022/11/13 02:27:15;;;;;;;10.30;5.77;;;;;;;19.35;61.68;101255.91;5069133;28;20412;-63
2022/11/13 02:29:40;;;;;;;11.80;5.97;;;;;;;19.35;61.61;101248.16;5052411;28;20198;-63
2022/11/13 02:32:06;;;;;;;12.33;5.80;;;;;;;19.33;61.73;101249.72;5070303;28;20905;-63
2022/11/13 02:34:31;;;;;;;8.17;4.80;;;;;;;19.33;61.77;101249.72;5077942;28;20189;-63
2022/11/13 02:36:56;;;;;;;9.83;5.27;;;;;;;19.35;61.88;101238.72;5090939;28;20177;-64
2022/11/13 02:39:22;;;;;;;12.90;5.33;;;;;;;19.33;61.78;101244.84;5091161;28;20174;-64
2022/11/13 02:41:47;;;;;;;9.70;5.70;;;;;;;19.32;61.74;101245.19;5072872;28;20178;-63
2022/11/13 02:44:13;;;;;;;8.47;5.60;;;;;;;19.33;61.76;101239.13;5091180;28;20178;-63
2022/11/13 02:46:38;;;;;;;12.60;5.73;;;;;;;19.28;61.82;101245.09;5073641;28;20189;-63
2022/11/13 02:49:04;;;;;;;12.20;6.10;;;;;;;19.31;61.85;101227.16;5091470;28;20514;-64
2022/11/13 02:51:29;;;;;;;9.03;5.27;;;;;;;19.31;61.56;101230.03;5091345;28;20786;-64
2022/11/13 02:53:55;;;;;;;8.40;5.10;;;;;;;19.30;61.70;101224.66;5071298;28;20175;-63
2022/11/13 02:56:20;;;;;;;10.70;5.30;;;;;;;19.31;61.72;101227.16;5037207;28;20171;-63
2022/11/13 02:58:46;;;;;;;9.03;5.13;;;;;;;19.30;61.77;101225.50;5032980;28;20684;-63
2022/11/13 03:01:11;;;;;;;9.00;5.30;;;;;;;19.31;61.81;101218.56;5050815;28;20183;-63
2022/11/13 03:03:36;;;;;;;11.80;5.00;;;;;;;19.29;61.83;101220.13;5051379;28;20565;-63
2022/11/13 03:06:02;;;;;;;10.63;5.23;;;;;;;19.30;61.66;101228.38;5074370;28;20692;-64
2022/11/13 03:08:27;;;;;;;7.07;5.10;;;;;;;19.30;61.67;101219.78;5074700;28;20668;-63
2022/11/13 03:10:53;;;;;;;9.70;5.20;;;;;;;19.29;61.74;101220.97;5074203;28;20191;-64
2022/11/13 03:13:18;;;;;;;8.70;5.27;;;;;;;19.29;61.86;101215.25;5074239;28;20235;-63
2022/11/13 03:15:44;;;;;;;9.97;5.27;;;;;;;19.30;61.87;101222.66;5056122;28;20850;-64
2022/11/13 03:18:10;;;;;;;9.77;4.97;;;;;;;19.28;61.77;101212.75;5056061;28;20201;-63
2022/11/13 03:20:36;;;;;;;7.27;4.53;;;;;;;19.31;61.64;101214.91;5038741;28;20651;-63
2022/11/13 03:23:02;;;;;;;7.43;5.27;;;;;;;19.30;61.84;101210.34;5036449;28;20496;-63
2022/11/13 03:25:28;;;;;;;6.80;4.77;;;;;;;19.32;61.69;101219.44;5019862;28;20780;-63
2022/11/13 03:27:53;;;;;;;8.57;4.93;;;;;;;19.27;61.64;101214.78;5053832;28;20246;-63
2022/11/13 03:30:19;;;;;;;8.63;4.87;;;;;;;19.28;61.79;101207.88;5053931;28;20200;-63
2022/11/13 03:32:44;;;;;;;6.90;4.77;;;;;;;19.29;61.82;101211.56;5053970;28;20210;-63
2022/11/13 03:35:09;;;;;;;6.87;4.63;;;;;;;19.27;61.78;101211.09;5047632;28;20179;-63
2022/11/13 03:37:35;;;;;;;7.57;5.00;;;;;;;19.29;61.79;101208.69;5073709;28;20182;-63
2022/11/13 03:40:00;;;;;;;8.43;4.93;;;;;;;19.26;61.75;101209.44;5073917;28;20156;-63
2022/11/13 03:42:26;;;;;;;10.27;5.80;;;;;;;19.30;61.58;101210.34;5055610;28;20171;-64
2022/11/13 03:44:51;;;;;;;9.47;4.73;;;;;;;19.29;61.65;101209.53;5073860;28;20285;-63
2022/11/13 03:47:17;;;;;;;9.90;5.50;;;;;;;19.27;61.63;101203.31;5073702;28;20171;-63
2022/11/13 03:49:42;;;;;;;7.93;4.77;;;;;;;19.26;61.72;101204.53;5038650;28;20298;-64
2022/11/13 03:52:08;;;;;;;7.27;4.40;;;;;;;19.27;61.64;101208.22;5078518;28;20317;-63
2022/11/13 03:54:33;;;;;;;8.30;5.37;;;;;;;19.25;61.80;101202.00;5093384;28;20182;-63
2022/11/13 03:56:59;;;;;;;6.97;4.27;;;;;;;19.25;61.70;101197.13;5075715;28;20170;-63
2022/11/13 03:59:24;;;;;;;9.43;4.70;;;;;;;19.27;61.75;101194.72;5093755;28;20200;-63
2022/11/13 04:01:49;;;;;;;7.90;4.90;;;;;;;19.26;61.72;101189.41;5093601;28;20515;-63
2022/11/13 04:04:15;;;;;;;8.93;5.10;;;;;;;19.26;61.84;101186.53;5093068;28;20561;-64
2022/11/13 04:06:41;;;;;;;10.03;4.80;;;;;;;19.26;61.65;101184.47;5058647;28;20650;-64
2022/11/13 04:09:06;;;;;;;8.00;4.63;;;;;;;19.24;61.88;101186.88;5093566;28;20167;-64
2022/11/13 04:11:32;;;;;;;7.17;4.53;;;;;;;19.29;61.77;101180.06;5075397;28;20189;-64
2022/11/13 04:13:57;;;;;;;7.27;4.37;;;;;;;19.28;61.56;101176.38;5075432;28;20170;-64
2022/11/13 04:16:22;;;;;;;6.57;4.80;;;;;;;19.25;61.65;101179.13;5091969;28;20177;-64
2022/11/13 04:18:48;;;;;;;7.73;4.97;;;;;;;19.25;61.77;101179.97;5093380;28;20170;-64
2022/11/13 04:21:13;;;;;;;9.67;6.10;;;;;;;19.27;61.66;101185.31;5093324;28;20155;-64
2022/11/13 04:23:39;;;;;;;7.90;4.40;;;;;;;19.25;62.00;101179.13;5093205;28;20186;-64
2022/11/13 04:26:04;;;;;;;6.23;4.43;;;;;;;19.23;61.74;101178.66;5075090;28;20598;-64
2022/11/13 04:28:29;;;;;;;7.60;5.20;;;;;;;19.25;61.79;101182.81;5093031;28;20657;-64
2022/11/13 04:30:55;;;;;;;9.93;4.47;;;;;;;19.24;61.64;101184.03;5075149;28;20675;-64
2022/11/13 04:33:20;;;;;;;8.03;4.90;;;;;;;19.24;61.88;101175.44;5075119;28;20629;-64
2022/11/13 04:35:47;;;;;;;7.87;4.80;;;;;;;19.26;61.58;101172.22;5074991;28;20236;-64
2022/11/13 04:38:12;;;;;;;7.00;4.97;;;;;;;19.26;61.57;101164.44;5092818;28;20174;-64
2022/11/13 04:40:38;;;;;;;8.23;5.07;;;;;;;19.24;61.80;101171.72;5092895;28;20409;-64
2022/11/13 04:43:04;;;;;;;8.33;4.87;;;;;;;19.23;61.70;101159.47;5092804;28;20159;-64
2022/11/13 04:45:29;;;;;;;7.97;4.90;;;;;;;19.23;61.64;101159.47;5092921;28;20884;-64
2022/11/13 04:47:55;;;;;;;5.87;4.17;;;;;;;19.26;61.68;101157.91;5074862;28;20175;-64
2022/11/13 04:50:21;;;;;;;6.77;4.40;;;;;;;19.26;61.74;101153.00;5056152;28;20203;-64
2022/11/13 04:52:46;;;;;;;5.60;4.20;;;;;;;19.27;61.64;101160.38;5092984;28;20624;-64
2022/11/13 04:55:12;;;;;;;6.33;4.60;;;;;;;19.27;61.89;101154.66;5093551;28;20664;-64
2022/11/13 04:57:37;;;;;;;7.77;4.90;;;;;;;19.22;61.69;101149.19;5058098;28;20645;-64
2022/11/13 05:00:04;;;;;;;6.70;4.40;;;;;;;19.25;61.61;101150.50;5074595;28;20212;-64
2022/11/13 05:02:29;;;;;;;9.50;4.93;;;;;;;19.27;61.51;101137.47;5073946;28;20177;-64
2022/11/13 05:04:55;;;;;;;8.03;5.07;;;;;;;19.24;61.85;101143.94;5091487;28;20447;-64
2022/11/13 05:07:20;;;;;;;7.93;4.00;;;;;;;19.27;61.31;101140.34;5073252;28;20209;-64
2022/11/13 05:09:46;;;;;;;6.90;5.20;;;;;;;19.25;61.57;101134.16;5091615;28;20202;-64
2022/11/13 05:12:11;;;;;;;9.50;4.33;;;;;;;19.26;61.56;101135.81;5091081;28;20174;-64
2022/11/13 05:14:37;;;;;;;7.37;4.43;;;;;;;19.25;61.60;101137.00;5091256;28;20243;-64
2022/11/13 05:17:03;;;;;;;7.20;4.63;;;;;;;19.25;61.61;101125.56;5073406;28;20246;-64
2022/11/13 05:19:29;;;;;;;8.50;4.73;;;;;;;19.27;61.53;101126.03;5074208;28;20618;-64
2022/11/13 05:21:55;;;;;;;5.90;4.27;;;;;;;19.26;61.78;101120.69;5074184;28;20459;-64
2022/11/13 05:24:20;;;;;;;8.73;5.33;;;;;;;19.25;61.51;101125.56;5091625;28;20506;-64
2022/11/13 05:26:46;;;;;;;7.13;4.27;;;;;;;19.27;61.49;101122.34;5073429;28;20427;-64
2022/11/13 05:29:11;;;;;;;6.13;4.67;;;;;;;19.25;61.61;101122.69;5091869;28;20158;-64
2022/11/13 05:31:36;;;;;;;5.60;4.10;;;;;;;19.25;61.56;101116.97;5092086;28;20178;-64
2022/11/13 05:34:03;;;;;;;5.97;4.57;;;;;;;19.24;61.52;101108.75;5091938;28;20189;-64
2022/11/13 05:36:28;;;;;;;6.53;4.27;;;;;;;19.26;61.58;101107.19;5081811;28;20171;-64
2022/11/13 05:38:54;;;;;;;6.50;4.67;;;;;;;19.26;61.39;101109.22;5053934;28;20900;-64
2022/11/13 05:41:20;;;;;;;5.80;3.87;;;;;;;19.23;61.60;101105.06;5071524;28;20171;-64
2022/11/13 05:43:45;;;;;;;5.77;4.33;;;;;;;19.25;61.51;101108.38;5054051;28;20220;-64
2022/11/13 05:46:12;;;;;;;7.63;5.00;;;;;;;19.29;61.59;101109.31;5071577;28;20410;-64
2022/11/13 05:48:38;;;;;;;5.90;4.20;;;;;;;19.26;61.20;101100.66;5071089;28;20266;-64
2022/11/13 05:51:13;;;;;;;5.60;4.03;;;;;;;19.25;61.32;101102.66;5053520;28;20555;-64
2022/11/13 05:53:39;;;;;;;7.23;4.37;;;;;;;19.25;61.63;101105.53;5070937;28;20231;-64
2022/11/13 05:56:09;;;;;;;5.93;3.90;;;;;;;19.24;61.59;101098.13;5055246;28;20447;-64
2022/11/13 05:58:34;;;;;;;7.80;4.33;;;;;;;19.24;61.40;101091.56;5091514;28;20424;-64
2022/11/13 06:01:20;;;;;;;5.47;3.80;;;;;;;19.23;61.49;101093.63;5072013;28;20420;-64
2022/11/13 06:03:45;;;;;;;6.47;3.80;;;;;;;19.25;61.45;101098.97;5053373;28;20665;-64
2022/11/13 06:06:14;;;;;;;6.13;4.20;;;;;;;19.27;61.37;101085.94;5055371;28;20416;-64
2022/11/13 06:08:40;;;;;;;5.23;3.80;;;;;;;19.27;61.51;101091.66;5089391;28;20712;-64
2022/11/13 06:11:15;;;;;;;6.97;4.43;;;;;;;19.25;61.38;101093.22;5072334;28;20463;-64
2022/11/13 06:13:40;;;;;;;10.10;4.70;;;;;;;19.26;61.44;101092.88;5072335;28;20844;-64
2022/11/13 06:16:11;;;;;;;5.70;3.80;;;;;;;19.22;61.49;101083.34;5073073;28;20413;-64
2022/11/13 06:18:37;;;;;;;6.70;4.17;;;;;;;19.28;61.63;101078.19;5091123;28;20175;-64
2022/11/13 06:21:07;;;;;;;8.40;3.93;;;;;;;19.26;61.50;101072.00;5091242;28;20404;-64
2022/11/13 06:23:33;;;;;;;4.43;3.43;;;;;;;19.27;61.50;101067.94;5090616;28;20185;-64
2022/11/13 06:26:03;;;;;;;5.60;3.70;;;;;;;19.29;61.25;101072.09;5055610;28;20471;-64
2022/11/13 06:28:29;;;;;;;6.77;4.00;;;;;;;19.28;61.55;101069.59;5072141;28;20401;-64
2022/11/13 06:30:54;;;;;;;6.60;4.27;;;;;;;19.25;61.52;101071.16;5072319;28;21295;-64
2022/11/13 06:33:20;;;;;;;6.90;4.30;;;;;;;19.23;61.60;101069.88;5084468;28;20179;-64
2022/11/13 06:35:45;;;;;;;7.37;4.47;;;;;;;19.26;61.49;101074.88;5087806;28;20189;-64
2022/11/13 06:38:10;;;;;;;6.77;3.90;;;;;;;19.26;61.37;101061.38;5090465;28;20181;-64
2022/11/13 06:40:39;;;;;;;5.60;3.90;;;;;;;19.28;61.46;101067.59;5095244;28;20159;-64
2022/11/13 06:43:04;;;;;;;7.80;4.70;;;;;;;19.27;61.13;101062.22;5095107;28;20554;-64
2022/11/13 06:45:30;;;;;;;6.87;4.13;;;;;;;19.27;61.50;101057.31;5095003;28;20408;-64
2022/11/13 06:47:55;;;;;;;5.90;4.10;;;;;;;19.30;61.57;101067.19;5094849;28;20182;-64
2022/11/13 06:50:21;;;;;;;5.97;3.60;;;;;;;19.28;61.27;101059.00;5076538;28;20198;-64
2022/11/13 06:52:46;;;;;;;5.43;3.97;;;;;;;19.25;61.53;101053.16;5076898;28;20230;-64
2022/11/13 06:55:12;;;;;;;7.00;4.13;;;;;;;19.27;61.49;101056.50;5095015;28;20254;-64
2022/11/13 06:57:37;;;;;;;6.67;4.20;;;;;;;19.24;61.61;101058.06;5075077;28;20551;-64
2022/11/13 07:00:03;;;;;;;8.20;5.10;;;;;;;19.27;61.44;101053.63;5071731;28;20181;-64
2022/11/13 07:02:29;;;;;;;7.97;4.60;;;;;;;19.27;61.43;101063.03;5073766;28;20535;-64
2022/11/13 07:04:54;;;;;;;4.83;3.60;;;;;;;19.27;61.36;101060.16;5092700;28;20443;-64
2022/11/13 07:07:20;;;;;;;6.97;4.30;;;;;;;19.29;61.48;101065.53;5074893;28;20162;-64
2022/11/13 07:09:45;;;;;;;5.43;3.60;;;;;;;19.28;61.33;101059.00;5094561;28;20179;-64
2022/11/13 07:12:10;;;;;;;5.87;3.80;;;;;;;19.26;61.37;101055.66;5094621;28;20159;-64
2022/11/13 07:14:36;;;;;;;5.70;3.60;;;;;;;19.28;61.35;101055.28;5094388;28;20170;-64
2022/11/13 07:17:01;;;;;;;5.80;4.10;;;;;;;19.28;61.33;101058.16;5094455;28;20528;-64
2022/11/13 07:19:27;;;;;;;5.43;3.87;;;;;;;19.29;61.50;101054.09;5094229;28;20159;-64
2022/11/13 07:21:52;;;;;;;7.03;3.47;;;;;;;19.30;61.41;101050.00;5094412;28;20170;-64
2022/11/13 07:24:18;;;;;;;6.30;3.80;;;;;;;19.29;61.26;101054.94;5092704;28;20221;-64
2022/11/13 07:26:43;;;;;;;6.70;3.70;;;;;;;19.28;61.32;101053.28;5094377;28;20162;-64
2022/11/13 07:29:08;;;;;;;4.93;3.50;;;;;;;19.27;61.28;101051.59;5094282;28;20170;-64
2022/11/13 07:31:34;;;;;;;5.37;3.90;;;;;;;19.29;61.45;101051.22;5093814;28;20210;-64
2022/11/13 07:33:59;;;;;;;4.70;3.73;;;;;;;19.25;61.47;101051.13;5075846;28;20185;-64
2022/11/13 07:36:26;;;;;;;6.13;3.50;;;;;;;19.28;61.52;101041.81;5075627;28;20193;-64
2022/11/13 07:38:51;;;;;;;5.40;3.93;;;;;;;19.28;61.39;101035.25;5094207;28;20652;-64
2022/11/13 07:41:17;;;;;;;5.63;3.80;;;;;;;19.27;61.38;101039.31;5075778;28;20401;-64
2022/11/13 07:43:42;;;;;;;5.60;3.90;;;;;;;19.28;61.46;101030.38;5093925;28;20162;-64
2022/11/13 07:46:08;;;;;;;7.20;3.90;;;;;;;19.28;61.23;101030.38;5093802;28;20170;-64
2022/11/13 07:48:33;;;;;;;6.17;3.70;;;;;;;19.31;61.22;101026.75;5093697;28;20197;-64
2022/11/13 07:51:00;;;;;;;3.70;3.07;;;;;;;19.30;61.43;101024.25;5093555;28;20233;-64
2022/11/13 07:53:25;;;;;;;5.63;3.73;;;;;;;19.29;61.59;101034.03;5092995;28;20226;-64
2022/11/13 07:55:51;;;;;;;6.47;3.87;;;;;;;19.29;61.25;101026.31;5093461;28;20433;-64
2022/11/13 07:58:16;;;;;;;7.00;3.90;;;;;;;19.29;61.28;101026.31;5089570;28;20213;-64
2022/11/13 08:00:42;;;;;;;5.73;3.90;;;;;;;19.31;61.26;101032.47;5087378;28;20174;-64
2022/11/13 08:03:12;;;;;;;5.60;3.33;;;;;;;19.31;61.35;101029.59;5074799;28;20513;-64
2022/11/13 08:05:38;;;;;;;4.63;3.40;;;;;;;19.29;61.33;101026.31;5076090;28;20206;-64
2022/11/13 08:08:04;;;;;;;6.40;3.90;;;;;;;19.28;61.34;101023.78;5058885;28;20478;-64
2022/11/13 08:10:29;;;;;;;5.37;3.30;;;;;;;19.29;61.44;101016.88;5069115;28;20198;-64
2022/11/13 08:13:00;;;;;;;7.40;4.63;;;;;;;19.29;61.45;101014.00;5072242;28;20182;-64
2022/11/13 08:15:25;;;;;;;5.13;3.17;;;;;;;19.28;61.34;101010.31;5069801;28;20253;-64
2022/11/13 08:17:55;;;;;;;4.87;3.77;;;;;;;19.30;61.32;101016.50;5092024;28;20520;-64
2022/11/13 08:20:20;;;;;;;6.97;4.10;;;;;;;19.28;61.40;101018.06;5084112;28;20216;-65
2022/11/13 08:22:46;;;;;;;6.60;4.30;;;;;;;19.30;61.40;101015.66;5092782;28;20428;-65
2022/11/13 08:25:11;;;;;;;4.40;3.47;;;;;;;19.33;61.27;101020.66;5080498;28;20232;-64
2022/11/13 08:27:37;;;;;;;5.27;3.90;;;;;;;19.29;61.36;101014.84;5085152;28;20182;-66
2022/11/13 08:30:03;;;;;;;4.67;3.40;;;;;;;19.30;61.34;101021.38;5081079;28;20257;-65
2022/11/13 08:32:28;;;;;;;5.30;3.60;;;;;;;19.29;61.43;101034.88;5072930;28;20190;-65
2022/11/13 08:34:54;;;;;;;5.30;3.50;;;;;;;19.30;61.44;101024.25;5074453;28;20175;-65
2022/11/13 08:37:19;;;;;;;7.73;3.67;;;;;;;19.31;61.19;101017.34;5080766;28;20179;-65
2022/11/13 08:39:44;;;;;;;5.43;3.60;;;;;;;19.32;61.40;101004.69;5075240;28;20203;-65
2022/11/13 08:42:10;;;;;;;5.70;3.80;;;;;;;19.30;61.57;101004.22;5058257;28;20186;-65
2022/11/13 08:44:35;;;;;;;5.77;3.50;;;;;;;19.32;61.37;101008.38;5079748;28;20190;-65
2022/11/13 08:47:01;;;;;;;4.90;3.60;;;;;;;19.31;61.30;101012.44;5078252;28;20186;-65
2022/11/13 08:49:26;;;;;;;6.00;3.47;;;;;;;19.29;61.38;101002.56;5054228;28;20209;-65
2022/11/13 08:51:52;;;;;;;4.87;3.60;;;;;;;19.28;61.35;100998.03;5080046;28;20227;-65
2022/11/13 08:54:17;;;;;;;5.13;3.70;;;;;;;19.31;61.36;100998.13;5053913;28;20237;-65
2022/11/13 08:56:42;;;;;;;4.60;3.43;;;;;;;19.33;61.54;100990.00;5070508;28;20192;-65
2022/11/13 08:59:08;;;;;;;5.40;3.50;;;;;;;19.34;61.63;100988.81;5054055;28;20229;-65
2022/11/13 09:01:34;;;;;;;4.77;3.13;;;;;;;19.33;61.40;100989.16;5020594;28;20278;-65
2022/11/13 09:03:59;;;;;;;5.97;3.00;;;;;;;19.33;61.17;100987.16;5050880;28;20445;-65
2022/11/13 09:06:25;;;;;;;5.93;3.70;;;;;;;19.33;61.29;100974.84;5053130;28;20203;-65
2022/11/13 09:08:50;;;;;;;5.83;3.70;;;;;;;19.31;61.35;100972.34;5060055;28;20679;-65
2022/11/13 09:11:16;;;;;;;5.40;3.43;;;;;;;19.33;61.16;100983.44;5070740;28;20252;-65
2022/11/13 09:13:41;;;;;;;5.50;3.90;;;;;;;19.34;61.10;100980.22;5064087;28;20186;-65
2022/11/13 09:16:07;;;;;;;6.53;3.20;;;;;;;19.32;61.33;100979.72;5051227;28;20191;-65
2022/11/13 09:18:32;;;;;;;5.47;3.77;;;;;;;19.30;61.31;100975.56;5052935;28;20187;-65
2022/11/13 09:21:01;;;;;;;4.43;3.30;;;;;;;19.31;61.38;100972.34;5050636;28;20282;-65
2022/11/13 09:23:27;;;;;;;4.40;3.10;;;;;;;19.34;61.42;100976.50;5047105;28;20190;-65
2022/11/13 09:25:53;;;;;;;5.93;3.60;;;;;;;19.39;61.30;100973.38;5067273;28;20425;-65
2022/11/13 09:28:18;;;;;;;5.40;3.70;;;;;;;19.35;61.31;100969.56;5053497;28;20449;-65
2022/11/13 09:30:44;;;;;;;4.60;3.43;;;;;;;19.30;61.32;100961.25;5051503;28;20203;-65
2022/11/13 09:33:14;;;;;;;4.90;3.50;;;;;;;19.31;61.25;100960.09;5045973;28;20201;-65
2022/11/13 09:35:39;;;;;;;5.70;4.00;;;;;;;19.32;61.22;100961.75;5053586;28;20634;-65
2022/11/13 09:38:10;;;;;;;4.83;3.10;;;;;;;19.32;61.23;100971.13;5052770;28;20447;-65
2022/11/13 09:40:36;;;;;;;5.23;3.50;;;;;;;19.36;61.44;100971.25;5062374;28;20179;-65
2022/11/13 09:43:03;;;;;;;5.47;3.87;;;;;;;19.31;61.14;100960.09;5057693;28;21002;-65
2022/11/13 09:45:29;;;;;;;5.50;3.40;;;;;;;19.34;61.45;100965.91;5047304;28;20187;-65
2022/11/13 09:47:54;;;;;;;5.00;3.40;;;;;;;19.36;61.13;100963.47;5063435;28;20785;-65
2022/11/13 09:50:25;;;;;;;4.50;3.03;;;;;;;19.34;61.36;100957.31;5038639;28;20207;-65
2022/11/13 09:52:52;;;;;;;6.60;3.57;;;;;;;19.31;61.23;100966.63;5045545;28;20586;-65
2022/11/13 09:55:19;;;;;;;5.40;3.60;;;;;;;19.36;61.17;100966.34;5080877;28;20519;-65
2022/11/13 09:58:03;;;;;;;5.70;2.90;;;;;;;19.36;61.15;100959.81;5061302;28;20955;-65
2022/11/13 10:00:29;;;;;;;3.43;2.83;;;;;;;19.36;61.28;100948.34;5076256;28;20768;-65
2022/11/13 10:03:23;;;;;;;4.57;3.40;;;;;;;19.32;61.25;100936.78;5072708;28;20511;-65
2022/11/13 10:06:13;;;;;;;5.23;3.30;;;;;;;19.32;61.32;100939.66;5075381;28;20202;-65
2022/11/13 10:08:57;;;;;;;4.73;2.93;;;;;;;19.34;61.20;100948.72;5060086;28;20987;-65
2022/11/13 10:11:41;;;;;;;5.77;4.13;;;;;;;19.31;61.39;100926.53;5044971;28;20902;-65
2022/11/13 10:14:22;;;;;;;6.20;3.13;;;;;;;19.30;61.46;100932.63;5074510;28;20930;-65
2022/11/13 10:16:53;;;;;;;4.57;3.23;;;;;;;19.29;61.41;100939.56;5054812;28;20527;-65
2022/11/13 10:19:22;;;;;;;4.00;2.90;;;;;;;19.33;61.31;100941.34;5059971;28;20523;-65
2022/11/13 10:21:49;;;;;;;6.80;3.83;;;;;;;19.33;61.33;100934.75;5074315;28;20423;-65
2022/11/13 10:24:36;;;;;;;3.63;2.93;;;;;;;19.31;61.42;100938.00;5038945;28;20797;-65
2022/11/13 10:27:07;;;;;;;5.77;4.00;;;;;;;19.34;61.18;100922.94;5072393;28;20443;-65
2022/11/13 10:29:32;;;;;;;5.57;3.40;;;;;;;19.34;61.03;100924.97;5061863;28;20437;-65
2022/11/13 10:32:00;;;;;;;5.50;3.50;;;;;;;19.34;61.17;100922.09;5056542;28;20440;-65
2022/11/13 10:34:26;;;;;;;4.83;3.50;;;;;;;19.32;61.27;100916.75;5082350;28;20174;-65
2022/11/13 10:37:13;;;;;;;4.00;3.13;;;;;;;19.34;61.46;100910.66;5081791;28;20754;-65
2022/11/13 10:39:43;;;;;;;4.00;2.67;;;;;;;19.39;61.10;100905.47;5072587;28;20206;-65
2022/11/13 10:42:20;;;;;;;4.47;2.77;;;;;;;19.35;61.21;100898.00;5037099;28;20417;-65
2022/11/13 10:44:57;;;;;;;6.03;3.27;;;;;;;19.33;61.29;100883.22;5064888;28;20976;-65
2022/11/13 10:47:23;;;;;;;4.03;3.20;;;;;;;19.34;61.31;100876.28;5072503;28;20412;-65
2022/11/13 10:49:49;;;;;;;5.00;3.03;;;;;;;19.33;61.16;100877.50;5060011;28;20460;-65
2022/11/13 10:52:19;;;;;;;5.33;3.50;;;;;;;19.30;61.27;100876.22;5078282;28;20568;-65
2022/11/13 10:54:45;;;;;;;5.80;3.10;;;;;;;19.34;61.20;100871.41;5073593;28;20179;-65
2022/11/13 10:57:33;;;;;;;4.83;3.23;;;;;;;19.32;61.31;100867.25;5054975;28;20431;-65
2022/11/13 10:59:59;;;;;;;5.10;3.10;;;;;;;19.33;61.21;100872.63;5048769;28;20187;-65
2022/11/13 11:02:25;;;;;;;4.30;3.00;;;;;;;19.33;61.40;100871.78;5035190;28;21277;-65
2022/11/13 11:05:20;;;;;;;5.10;3.20;;;;;;;19.32;61.32;100856.63;5080681;28;20228;-65
2022/11/13 11:07:46;;;;;;;4.27;2.77;;;;;;;19.34;61.41;100861.97;5035568;28;20479;-65
2022/11/13 11:10:33;;;;;;;6.13;4.07;;;;;;;19.33;61.28;100852.59;5044667;28;20457;-65
2022/11/13 11:13:07;;;;;;;5.30;3.20;;;;;;;19.37;61.14;100849.78;5062691;28;20171;-65
2022/11/13 11:15:36;;;;;;;5.63;3.80;;;;;;;19.31;61.40;100857.84;5063265;28;20949;-65
2022/11/13 11:18:03;;;;;;;4.40;3.13;;;;;;;19.35;61.11;100852.19;5071951;28;20419;-65
2022/11/13 11:20:58;;;;;;;4.40;3.23;;;;;;;19.41;61.20;100847.84;5056337;28;20420;-65
2022/11/13 11:23:47;;;;;;;4.23;3.30;;;;;;;19.40;60.70;100843.31;5056209;28;20470;-65